sensor_id;sensor_type;location;lat;lon;timestamp;P1;durP1;ratioP1;P2;durP2;ratioP2
42000;SDS011;27689;48.390;10.856;2023-06-22T00:01:10;9.30;;;6.20;;
42000;SDS011;27689;48.390;10.856;2023-06-22T00:03:58;10.10;;;6.07;;
42000;SDS011;27689;48.390;10.856;2023-06-22T00:06:42;10.50;;;5.70;;
42000;SDS011;27689;48.390;10.856;2023-06-22T00:09:26;12.60;;;6.60;;
42000;SDS011;27689;48.390;10.856;2023-06-22T00:12:10;12.25;;;6.95;;
42000;SDS011;27689;48.390;10.856;2023-06-22T00:14:54;9.00;;;5.95;;
42000;SDS011;27689;48.390;10.856;2023-06-22T00:17:38;9.40;;;6.28;;
42000;SDS011;27689;48.390;10.856;2023-06-22T00:20:22;9.38;;;6.20;;
42000;SDS011;27689;48.390;10.856;2023-06-22T00:23:07;9.88;;;6.25;;
42000;SDS011;27689;48.390;10.856;2023-06-22T00:28:36;12.63;;;6.22;;
42000;SDS011;27689;48.390;10.856;2023-06-22T00:31:20;10.30;;;6.35;;
42000;SDS011;27689;48.390;10.856;2023-06-22T00:34:04;9.63;;;5.47;;
42000;SDS011;27689;48.390;10.856;2023-06-22T00:36:50;8.65;;;5.50;;
42000;SDS011;27689;48.390;10.856;2023-06-22T00:39:35;8.48;;;5.45;;
42000;SDS011;27689;48.390;10.856;2023-06-22T00:42:19;7.70;;;5.00;;
42000;SDS011;27689;48.390;10.856;2023-06-22T00:45:03;16.23;;;5.80;;
42000;SDS011;27689;48.390;10.856;2023-06-22T00:47:48;10.00;;;5.68;;
42000;SDS011;27689;48.390;10.856;2023-06-22T00:50:33;10.93;;;5.38;;
42000;SDS011;27689;48.390;10.856;2023-06-22T00:53:17;10.48;;;6.22;;
42000;SDS011;27689;48.390;10.856;2023-06-22T00:56:01;8.68;;;5.80;;
42000;SDS011;27689;48.390;10.856;2023-06-22T01:01:30;10.13;;;5.85;;
42000;SDS011;27689;48.390;10.856;2023-06-22T01:04:14;11.40;;;6.28;;
42000;SDS011;27689;48.390;10.856;2023-06-22T01:07:21;12.30;;;6.55;;
42000;SDS011;27689;48.390;10.856;2023-06-22T01:10:21;10.43;;;5.78;;
42000;SDS011;27689;48.390;10.856;2023-06-22T01:13:19;11.68;;;6.13;;
42000;SDS011;27689;48.390;10.856;2023-06-22T01:16:33;11.77;;;5.63;;
42000;SDS011;27689;48.390;10.856;2023-06-22T01:22:45;12.02;;;6.75;;
42000;SDS011;27689;48.390;10.856;2023-06-22T01:28:42;9.13;;;5.38;;
42000;SDS011;27689;48.390;10.856;2023-06-22T01:31:29;12.88;;;6.13;;
42000;SDS011;27689;48.390;10.856;2023-06-22T01:34:17;9.35;;;5.80;;
42000;SDS011;27689;48.390;10.856;2023-06-22T01:39:47;11.13;;;6.55;;
42000;SDS011;27689;48.390;10.856;2023-06-22T01:42:32;7.32;;;5.18;;
42000;SDS011;27689;48.390;10.856;2023-06-22T01:45:16;9.68;;;5.90;;
42000;SDS011;27689;48.390;10.856;2023-06-22T01:48:02;10.77;;;5.20;;
42000;SDS011;27689;48.390;10.856;2023-06-22T01:50:46;10.70;;;5.80;;
42000;SDS011;27689;48.390;10.856;2023-06-22T01:53:31;9.35;;;6.28;;
42000;SDS011;27689;48.390;10.856;2023-06-22T01:56:18;7.18;;;5.30;;
42000;SDS011;27689;48.390;10.856;2023-06-22T01:59:09;11.20;;;6.97;;
42000;SDS011;27689;48.390;10.856;2023-06-22T02:02:07;8.63;;;5.65;;
42000;SDS011;27689;48.390;10.856;2023-06-22T02:04:55;7.55;;;5.90;;
42000;SDS011;27689;48.390;10.856;2023-06-22T02:07:46;10.30;;;6.38;;
42000;SDS011;27689;48.390;10.856;2023-06-22T02:10:44;10.98;;;6.13;;
42000;SDS011;27689;48.390;10.856;2023-06-22T02:13:30;12.02;;;6.00;;
42000;SDS011;27689;48.390;10.856;2023-06-22T02:16:14;9.90;;;6.32;;
42000;SDS011;27689;48.390;10.856;2023-06-22T02:19:01;10.45;;;6.10;;
42000;SDS011;27689;48.390;10.856;2023-06-22T02:21:50;10.40;;;6.45;;
42000;SDS011;27689;48.390;10.856;2023-06-22T02:24:34;10.93;;;6.22;;
42000;SDS011;27689;48.390;10.856;2023-06-22T02:27:18;7.43;;;6.23;;
42000;SDS011;27689;48.390;10.856;2023-06-22T02:30:02;9.00;;;5.22;;
42000;SDS011;27689;48.390;10.856;2023-06-22T02:32:47;10.68;;;7.18;;
42000;SDS011;27689;48.390;10.856;2023-06-22T02:35:31;12.83;;;7.10;;
42000;SDS011;27689;48.390;10.856;2023-06-22T02:38:15;10.70;;;6.63;;
42000;SDS011;27689;48.390;10.856;2023-06-22T02:41:00;9.30;;;6.07;;
42000;SDS011;27689;48.390;10.856;2023-06-22T02:43:47;13.23;;;6.78;;
42000;SDS011;27689;48.390;10.856;2023-06-22T02:46:31;8.63;;;6.70;;
42000;SDS011;27689;48.390;10.856;2023-06-22T02:49:15;11.80;;;6.38;;
42000;SDS011;27689;48.390;10.856;2023-06-22T02:51:59;9.55;;;6.65;;
42000;SDS011;27689;48.390;10.856;2023-06-22T02:54:43;13.85;;;6.93;;
42000;SDS011;27689;48.390;10.856;2023-06-22T02:57:29;9.10;;;6.45;;
42000;SDS011;27689;48.390;10.856;2023-06-22T03:00:13;9.32;;;6.82;;
42000;SDS011;27689;48.390;10.856;2023-06-22T03:03:01;10.63;;;7.20;;
42000;SDS011;27689;48.390;10.856;2023-06-22T03:05:45;11.18;;;7.05;;
42000;SDS011;27689;48.390;10.856;2023-06-22T03:08:29;10.00;;;6.93;;
42000;SDS011;27689;48.390;10.856;2023-06-22T03:11:13;15.47;;;7.90;;
42000;SDS011;27689;48.390;10.856;2023-06-22T03:13:57;10.68;;;7.38;;
42000;SDS011;27689;48.390;10.856;2023-06-22T03:16:41;9.50;;;7.10;;
42000;SDS011;27689;48.390;10.856;2023-06-22T03:19:26;11.17;;;7.93;;
42000;SDS011;27689;48.390;10.856;2023-06-22T03:22:09;15.57;;;8.45;;
42000;SDS011;27689;48.390;10.856;2023-06-22T03:24:53;11.07;;;7.25;;
42000;SDS011;27689;48.390;10.856;2023-06-22T03:27:37;14.30;;;8.32;;
42000;SDS011;27689;48.390;10.856;2023-06-22T03:30:21;9.48;;;7.25;;
42000;SDS011;27689;48.390;10.856;2023-06-22T03:33:05;10.18;;;7.93;;
42000;SDS011;27689;48.390;10.856;2023-06-22T03:35:48;12.55;;;7.35;;
42000;SDS011;27689;48.390;10.856;2023-06-22T03:38:33;10.70;;;7.50;;
42000;SDS011;27689;48.390;10.856;2023-06-22T03:41:17;12.77;;;8.30;;
42000;SDS011;27689;48.390;10.856;2023-06-22T03:44:02;13.65;;;7.63;;
42000;SDS011;27689;48.390;10.856;2023-06-22T03:46:46;14.90;;;8.75;;
42000;SDS011;27689;48.390;10.856;2023-06-22T03:49:30;11.48;;;7.70;;
42000;SDS011;27689;48.390;10.856;2023-06-22T03:52:14;12.43;;;7.37;;
42000;SDS011;27689;48.390;10.856;2023-06-22T03:54:58;11.45;;;7.53;;
42000;SDS011;27689;48.390;10.856;2023-06-22T03:57:42;11.48;;;7.93;;
42000;SDS011;27689;48.390;10.856;2023-06-22T04:00:26;12.32;;;8.40;;
42000;SDS011;27689;48.390;10.856;2023-06-22T04:03:10;11.52;;;7.90;;
42000;SDS011;27689;48.390;10.856;2023-06-22T04:05:55;12.73;;;8.52;;
42000;SDS011;27689;48.390;10.856;2023-06-22T04:08:39;12.10;;;8.37;;
42000;SDS011;27689;48.390;10.856;2023-06-22T04:14:08;11.23;;;7.55;;
42000;SDS011;27689;48.390;10.856;2023-06-22T04:16:52;10.35;;;7.03;;
42000;SDS011;27689;48.390;10.856;2023-06-22T04:19:36;13.43;;;7.97;;
42000;SDS011;27689;48.390;10.856;2023-06-22T04:22:20;9.20;;;7.13;;
42000;SDS011;27689;48.390;10.856;2023-06-22T04:25:05;9.23;;;6.50;;
42000;SDS011;27689;48.390;10.856;2023-06-22T04:27:51;12.10;;;7.82;;
42000;SDS011;27689;48.390;10.856;2023-06-22T04:30:35;11.70;;;8.43;;
42000;SDS011;27689;48.390;10.856;2023-06-22T04:33:19;12.27;;;6.67;;
42000;SDS011;27689;48.390;10.856;2023-06-22T04:36:03;10.07;;;7.30;;
42000;SDS011;27689;48.390;10.856;2023-06-22T04:38:48;14.63;;;7.90;;
42000;SDS011;27689;48.390;10.856;2023-06-22T04:41:37;10.60;;;7.70;;
42000;SDS011;27689;48.390;10.856;2023-06-22T04:44:28;14.50;;;8.35;;
42000;SDS011;27689;48.390;10.856;2023-06-22T04:47:12;15.15;;;8.07;;
42000;SDS011;27689;48.390;10.856;2023-06-22T04:49:56;9.77;;;6.80;;
42000;SDS011;27689;48.390;10.856;2023-06-22T04:52:40;10.77;;;7.50;;
42000;SDS011;27689;48.390;10.856;2023-06-22T04:55:24;12.70;;;7.43;;
42000;SDS011;27689;48.390;10.856;2023-06-22T04:58:09;11.23;;;7.90;;
42000;SDS011;27689;48.390;10.856;2023-06-22T05:00:56;11.18;;;7.82;;
42000;SDS011;27689;48.390;10.856;2023-06-22T05:03:40;8.80;;;6.22;;
42000;SDS011;27689;48.390;10.856;2023-06-22T05:06:25;9.43;;;7.10;;
42000;SDS011;27689;48.390;10.856;2023-06-22T05:09:09;12.68;;;7.07;;
42000;SDS011;27689;48.390;10.856;2023-06-22T05:11:53;10.47;;;7.10;;
42000;SDS011;27689;48.390;10.856;2023-06-22T05:14:37;12.40;;;7.57;;
42000;SDS011;27689;48.390;10.856;2023-06-22T05:17:21;12.73;;;8.32;;
42000;SDS011;27689;48.390;10.856;2023-06-22T05:20:05;9.40;;;7.05;;
42000;SDS011;27689;48.390;10.856;2023-06-22T05:25:34;9.45;;;6.90;;
42000;SDS011;27689;48.390;10.856;2023-06-22T05:28:18;9.93;;;6.97;;
42000;SDS011;27689;48.390;10.856;2023-06-22T05:31:06;11.95;;;7.53;;
42000;SDS011;27689;48.390;10.856;2023-06-22T05:33:51;14.90;;;7.43;;
42000;SDS011;27689;48.390;10.856;2023-06-22T05:36:36;12.23;;;6.93;;
42000;SDS011;27689;48.390;10.856;2023-06-22T05:39:20;14.40;;;7.90;;
42000;SDS011;27689;48.390;10.856;2023-06-22T05:42:05;11.95;;;7.75;;
42000;SDS011;27689;48.390;10.856;2023-06-22T05:44:50;8.18;;;7.38;;
42000;SDS011;27689;48.390;10.856;2023-06-22T05:47:34;8.88;;;6.95;;
42000;SDS011;27689;48.390;10.856;2023-06-22T05:50:18;11.63;;;8.35;;
42000;SDS011;27689;48.390;10.856;2023-06-22T05:53:02;10.18;;;7.13;;
42000;SDS011;27689;48.390;10.856;2023-06-22T05:55:46;11.65;;;7.18;;
42000;SDS011;27689;48.390;10.856;2023-06-22T05:58:30;10.73;;;7.97;;
42000;SDS011;27689;48.390;10.856;2023-06-22T06:01:14;11.48;;;8.77;;
42000;SDS011;27689;48.390;10.856;2023-06-22T06:06:43;10.25;;;7.97;;
42000;SDS011;27689;48.390;10.856;2023-06-22T06:09:27;14.25;;;8.77;;
42000;SDS011;27689;48.390;10.856;2023-06-22T06:12:10;12.90;;;7.95;;
42000;SDS011;27689;48.390;10.856;2023-06-22T06:14:55;12.10;;;7.68;;
42000;SDS011;27689;48.390;10.856;2023-06-22T06:17:49;11.20;;;8.20;;
42000;SDS011;27689;48.390;10.856;2023-06-22T06:23:19;11.43;;;6.50;;
42000;SDS011;27689;48.390;10.856;2023-06-22T06:26:03;11.37;;;7.53;;
42000;SDS011;27689;48.390;10.856;2023-06-22T06:28:50;14.48;;;6.80;;
42000;SDS011;27689;48.390;10.856;2023-06-22T06:31:34;11.05;;;6.32;;
42000;SDS011;27689;48.390;10.856;2023-06-22T06:34:18;8.95;;;6.50;;
42000;SDS011;27689;48.390;10.856;2023-06-22T06:37:02;11.27;;;6.63;;
42000;SDS011;27689;48.390;10.856;2023-06-22T06:39:46;13.65;;;6.82;;
42000;SDS011;27689;48.390;10.856;2023-06-22T06:42:30;11.27;;;6.63;;
42000;SDS011;27689;48.390;10.856;2023-06-22T06:45:15;13.15;;;6.75;;
42000;SDS011;27689;48.390;10.856;2023-06-22T06:48:05;17.35;;;7.22;;
42000;SDS011;27689;48.390;10.856;2023-06-22T06:50:49;10.67;;;6.70;;
42000;SDS011;27689;48.390;10.856;2023-06-22T06:53:33;10.43;;;6.47;;
42000;SDS011;27689;48.390;10.856;2023-06-22T06:56:17;16.27;;;8.25;;
42000;SDS011;27689;48.390;10.856;2023-06-22T06:59:01;10.90;;;7.03;;
42000;SDS011;27689;48.390;10.856;2023-06-22T07:01:45;10.05;;;6.70;;
42000;SDS011;27689;48.390;10.856;2023-06-22T07:04:32;17.05;;;8.23;;
42000;SDS011;27689;48.390;10.856;2023-06-22T07:07:16;11.90;;;7.65;;
42000;SDS011;27689;48.390;10.856;2023-06-22T07:10:00;12.27;;;7.33;;
42000;SDS011;27689;48.390;10.856;2023-06-22T07:12:44;9.73;;;6.85;;
42000;SDS011;27689;48.390;10.856;2023-06-22T07:15:28;11.52;;;6.22;;
42000;SDS011;27689;48.390;10.856;2023-06-22T07:18:12;15.73;;;6.95;;
42000;SDS011;27689;48.390;10.856;2023-06-22T07:20:56;14.73;;;6.80;;
42000;SDS011;27689;48.390;10.856;2023-06-22T07:23:40;13.80;;;6.80;;
42000;SDS011;27689;48.390;10.856;2023-06-22T07:26:24;12.82;;;7.05;;
42000;SDS011;27689;48.390;10.856;2023-06-22T07:29:08;14.60;;;7.13;;
42000;SDS011;27689;48.390;10.856;2023-06-22T07:31:52;12.43;;;7.10;;
42000;SDS011;27689;48.390;10.856;2023-06-22T07:34:36;17.35;;;6.88;;
42000;SDS011;27689;48.390;10.856;2023-06-22T07:37:21;15.07;;;6.65;;
42000;SDS011;27689;48.390;10.856;2023-06-22T07:40:05;18.15;;;7.43;;
42000;SDS011;27689;48.390;10.856;2023-06-22T07:45:37;11.05;;;6.95;;
42000;SDS011;27689;48.390;10.856;2023-06-22T07:48:23;13.55;;;7.25;;
42000;SDS011;27689;48.390;10.856;2023-06-22T07:51:07;14.68;;;6.60;;
42000;SDS011;27689;48.390;10.856;2023-06-22T07:53:51;15.43;;;6.53;;
42000;SDS011;27689;48.390;10.856;2023-06-22T07:56:36;13.57;;;6.65;;
42000;SDS011;27689;48.390;10.856;2023-06-22T07:59:20;10.93;;;6.10;;
42000;SDS011;27689;48.390;10.856;2023-06-22T08:02:04;15.30;;;7.05;;
42000;SDS011;27689;48.390;10.856;2023-06-22T08:04:48;10.95;;;5.72;;
42000;SDS011;27689;48.390;10.856;2023-06-22T08:07:32;11.50;;;6.05;;
42000;SDS011;27689;48.390;10.856;2023-06-22T08:10:16;11.43;;;6.75;;
42000;SDS011;27689;48.390;10.856;2023-06-22T08:13:01;12.32;;;7.45;;
42000;SDS011;27689;48.390;10.856;2023-06-22T08:15:45;13.57;;;7.22;;
42000;SDS011;27689;48.390;10.856;2023-06-22T08:18:29;9.27;;;5.80;;
42000;SDS011;27689;48.390;10.856;2023-06-22T08:21:13;10.95;;;6.60;;
42000;SDS011;27689;48.390;10.856;2023-06-22T08:23:57;16.50;;;6.85;;
42000;SDS011;27689;48.390;10.856;2023-06-22T08:26:41;14.17;;;7.40;;
42000;SDS011;27689;48.390;10.856;2023-06-22T08:29:25;12.98;;;6.55;;
42000;SDS011;27689;48.390;10.856;2023-06-22T08:32:09;21.57;;;7.83;;
42000;SDS011;27689;48.390;10.856;2023-06-22T08:34:56;12.38;;;5.68;;
42000;SDS011;27689;48.390;10.856;2023-06-22T08:37:41;12.70;;;6.00;;
42000;SDS011;27689;48.390;10.856;2023-06-22T08:40:25;10.80;;;6.90;;
42000;SDS011;27689;48.390;10.856;2023-06-22T08:43:08;12.37;;;6.60;;
42000;SDS011;27689;48.390;10.856;2023-06-22T08:45:53;15.23;;;6.67;;
42000;SDS011;27689;48.390;10.856;2023-06-22T08:48:37;12.47;;;6.07;;
42000;SDS011;27689;48.390;10.856;2023-06-22T08:51:21;11.80;;;5.77;;
42000;SDS011;27689;48.390;10.856;2023-06-22T08:54:05;16.85;;;7.25;;
42000;SDS011;27689;48.390;10.856;2023-06-22T08:56:49;15.60;;;7.90;;
42000;SDS011;27689;48.390;10.856;2023-06-22T08:59:33;14.40;;;6.40;;
42000;SDS011;27689;48.390;10.856;2023-06-22T09:02:17;11.23;;;6.00;;
42000;SDS011;27689;48.390;10.856;2023-06-22T09:05:02;12.32;;;6.13;;
42000;SDS011;27689;48.390;10.856;2023-06-22T09:07:47;17.95;;;6.65;;
42000;SDS011;27689;48.390;10.856;2023-06-22T09:10:31;17.70;;;5.73;;
42000;SDS011;27689;48.390;10.856;2023-06-22T09:13:15;10.75;;;6.00;;
42000;SDS011;27689;48.390;10.856;2023-06-22T09:15:59;15.47;;;6.57;;
42000;SDS011;27689;48.390;10.856;2023-06-22T09:18:46;16.65;;;6.35;;
42000;SDS011;27689;48.390;10.856;2023-06-22T09:21:31;14.55;;;6.22;;
42000;SDS011;27689;48.390;10.856;2023-06-22T09:24:15;13.73;;;6.40;;
42000;SDS011;27689;48.390;10.856;2023-06-22T09:26:59;14.43;;;5.68;;
42000;SDS011;27689;48.390;10.856;2023-06-22T09:29:42;11.50;;;5.83;;
42000;SDS011;27689;48.390;10.856;2023-06-22T09:32:26;14.50;;;6.53;;
42000;SDS011;27689;48.390;10.856;2023-06-22T09:35:11;10.50;;;5.95;;
42000;SDS011;27689;48.390;10.856;2023-06-22T09:37:56;12.40;;;5.38;;
42000;SDS011;27689;48.390;10.856;2023-06-22T09:40:40;13.07;;;6.22;;
42000;SDS011;27689;48.390;10.856;2023-06-22T09:43:24;17.42;;;6.45;;
42000;SDS011;27689;48.390;10.856;2023-06-22T09:46:09;16.30;;;6.70;;
42000;SDS011;27689;48.390;10.856;2023-06-22T09:51:37;11.88;;;6.18;;
42000;SDS011;27689;48.390;10.856;2023-06-22T09:54:21;12.52;;;5.72;;
42000;SDS011;27689;48.390;10.856;2023-06-22T09:57:06;11.90;;;6.13;;
42000;SDS011;27689;48.390;10.856;2023-06-22T09:59:50;15.40;;;6.03;;
42000;SDS011;27689;48.390;10.856;2023-06-22T10:02:34;11.55;;;6.30;;
42000;SDS011;27689;48.390;10.856;2023-06-22T10:08:03;12.32;;;6.40;;
42000;SDS011;27689;48.390;10.856;2023-06-22T10:10:47;11.82;;;5.95;;
42000;SDS011;27689;48.390;10.856;2023-06-22T10:13:31;21.00;;;7.05;;
42000;SDS011;27689;48.390;10.856;2023-06-22T10:16:15;19.80;;;7.27;;
42000;SDS011;27689;48.390;10.856;2023-06-22T10:18:59;10.50;;;5.65;;
42000;SDS011;27689;48.390;10.856;2023-06-22T10:21:43;14.52;;;6.35;;
42000;SDS011;27689;48.390;10.856;2023-06-22T10:24:27;11.73;;;5.82;;
42000;SDS011;27689;48.390;10.856;2023-06-22T10:27:11;11.15;;;6.13;;
42000;SDS011;27689;48.390;10.856;2023-06-22T10:29:55;17.75;;;7.00;;
42000;SDS011;27689;48.390;10.856;2023-06-22T10:32:39;12.38;;;5.70;;
42000;SDS011;27689;48.390;10.856;2023-06-22T10:38:08;12.80;;;6.25;;
42000;SDS011;27689;48.390;10.856;2023-06-22T10:40:52;14.57;;;6.60;;
42000;SDS011;27689;48.390;10.856;2023-06-22T10:43:35;12.73;;;5.70;;
42000;SDS011;27689;48.390;10.856;2023-06-22T10:46:19;11.75;;;6.85;;
42000;SDS011;27689;48.390;10.856;2023-06-22T10:49:03;14.13;;;6.40;;
42000;SDS011;27689;48.390;10.856;2023-06-22T10:51:47;9.52;;;5.45;;
42000;SDS011;27689;48.390;10.856;2023-06-22T10:54:32;13.93;;;6.20;;
42000;SDS011;27689;48.390;10.856;2023-06-22T10:57:17;17.85;;;6.57;;
42000;SDS011;27689;48.390;10.856;2023-06-22T11:00:01;16.67;;;6.07;;
42000;SDS011;27689;48.390;10.856;2023-06-22T11:02:48;15.18;;;6.75;;
42000;SDS011;27689;48.390;10.856;2023-06-22T11:05:32;15.40;;;6.30;;
42000;SDS011;27689;48.390;10.856;2023-06-22T11:08:16;13.60;;;5.90;;
42000;SDS011;27689;48.390;10.856;2023-06-22T11:11:00;13.52;;;6.70;;
42000;SDS011;27689;48.390;10.856;2023-06-22T11:13:44;14.50;;;6.43;;
42000;SDS011;27689;48.390;10.856;2023-06-22T11:16:28;10.57;;;6.25;;
42000;SDS011;27689;48.390;10.856;2023-06-22T11:19:12;18.63;;;7.10;;
42000;SDS011;27689;48.390;10.856;2023-06-22T11:24:40;11.38;;;6.03;;
42000;SDS011;27689;48.390;10.856;2023-06-22T11:27:24;10.27;;;5.97;;
42000;SDS011;27689;48.390;10.856;2023-06-22T11:30:08;14.02;;;5.88;;
42000;SDS011;27689;48.390;10.856;2023-06-22T11:32:53;9.63;;;6.03;;
42000;SDS011;27689;48.390;10.856;2023-06-22T11:35:37;10.82;;;6.13;;
42000;SDS011;27689;48.390;10.856;2023-06-22T11:38:21;13.57;;;6.25;;
42000;SDS011;27689;48.390;10.856;2023-06-22T11:41:05;11.88;;;6.25;;
42000;SDS011;27689;48.390;10.856;2023-06-22T11:43:50;13.40;;;7.00;;
42000;SDS011;27689;48.390;10.856;2023-06-22T11:46:34;11.77;;;6.82;;
42000;SDS011;27689;48.390;10.856;2023-06-22T11:49:18;11.30;;;6.00;;
42000;SDS011;27689;48.390;10.856;2023-06-22T11:52:02;10.57;;;5.95;;
42000;SDS011;27689;48.390;10.856;2023-06-22T11:57:32;12.95;;;5.82;;
42000;SDS011;27689;48.390;10.856;2023-06-22T12:00:18;12.95;;;6.18;;
42000;SDS011;27689;48.390;10.856;2023-06-22T12:03:03;15.10;;;5.90;;
42000;SDS011;27689;48.390;10.856;2023-06-22T12:05:47;14.13;;;5.85;;
42000;SDS011;27689;48.390;10.856;2023-06-22T12:08:31;13.48;;;5.97;;
42000;SDS011;27689;48.390;10.856;2023-06-22T12:11:15;13.00;;;6.22;;
42000;SDS011;27689;48.390;10.856;2023-06-22T12:13:59;13.50;;;6.03;;
42000;SDS011;27689;48.390;10.856;2023-06-22T12:16:45;14.63;;;6.72;;
42000;SDS011;27689;48.390;10.856;2023-06-22T12:19:29;19.63;;;7.43;;
42000;SDS011;27689;48.390;10.856;2023-06-22T12:22:13;15.60;;;6.80;;
42000;SDS011;27689;48.390;10.856;2023-06-22T12:24:57;14.85;;;6.18;;
42000;SDS011;27689;48.390;10.856;2023-06-22T12:27:41;14.20;;;6.40;;
42000;SDS011;27689;48.390;10.856;2023-06-22T12:30:25;19.60;;;6.72;;
42000;SDS011;27689;48.390;10.856;2023-06-22T12:33:09;15.45;;;6.20;;
42000;SDS011;27689;48.390;10.856;2023-06-22T12:35:53;13.45;;;5.50;;
42000;SDS011;27689;48.390;10.856;2023-06-22T12:38:37;15.32;;;6.22;;
42000;SDS011;27689;48.390;10.856;2023-06-22T12:41:21;14.93;;;6.18;;
42000;SDS011;27689;48.390;10.856;2023-06-22T12:44:05;13.63;;;5.70;;
42000;SDS011;27689;48.390;10.856;2023-06-22T12:46:49;18.75;;;5.43;;
42000;SDS011;27689;48.390;10.856;2023-06-22T12:49:33;11.93;;;5.68;;
42000;SDS011;27689;48.390;10.856;2023-06-22T12:52:17;15.02;;;5.90;;
42000;SDS011;27689;48.390;10.856;2023-06-22T12:55:00;14.88;;;7.47;;
42000;SDS011;27689;48.390;10.856;2023-06-22T12:57:45;12.82;;;6.55;;
42000;SDS011;27689;48.390;10.856;2023-06-22T13:00:28;14.98;;;5.78;;
42000;SDS011;27689;48.390;10.856;2023-06-22T13:03:13;14.45;;;5.18;;
42000;SDS011;27689;48.390;10.856;2023-06-22T13:05:58;13.68;;;6.53;;
42000;SDS011;27689;48.390;10.856;2023-06-22T13:08:42;10.40;;;5.68;;
42000;SDS011;27689;48.390;10.856;2023-06-22T13:11:27;12.05;;;6.20;;
42000;SDS011;27689;48.390;10.856;2023-06-22T13:14:11;15.63;;;6.10;;
42000;SDS011;27689;48.390;10.856;2023-06-22T13:16:55;15.30;;;6.45;;
42000;SDS011;27689;48.390;10.856;2023-06-22T13:19:39;12.85;;;6.00;;
42000;SDS011;27689;48.390;10.856;2023-06-22T13:22:30;14.52;;;5.72;;
42000;SDS011;27689;48.390;10.856;2023-06-22T13:25:26;16.63;;;6.43;;
42000;SDS011;27689;48.390;10.856;2023-06-22T13:30:59;12.65;;;6.25;;
42000;SDS011;27689;48.390;10.856;2023-06-22T13:33:43;16.35;;;6.15;;
42000;SDS011;27689;48.390;10.856;2023-06-22T13:36:29;15.98;;;6.50;;
42000;SDS011;27689;48.390;10.856;2023-06-22T13:39:14;15.43;;;6.05;;
42000;SDS011;27689;48.390;10.856;2023-06-22T13:41:59;15.15;;;6.00;;
42000;SDS011;27689;48.390;10.856;2023-06-22T13:47:27;15.10;;;6.65;;
42000;SDS011;27689;48.390;10.856;2023-06-22T13:50:11;19.70;;;6.80;;
42000;SDS011;27689;48.390;10.856;2023-06-22T13:52:56;16.13;;;6.30;;
42000;SDS011;27689;48.390;10.856;2023-06-22T13:55:40;12.57;;;6.45;;
42000;SDS011;27689;48.390;10.856;2023-06-22T13:58:24;16.00;;;6.30;;
42000;SDS011;27689;48.390;10.856;2023-06-22T14:01:08;18.13;;;5.90;;
42000;SDS011;27689;48.390;10.856;2023-06-22T14:03:52;16.70;;;5.97;;
42000;SDS011;27689;48.390;10.856;2023-06-22T14:06:37;15.18;;;5.68;;
42000;SDS011;27689;48.390;10.856;2023-06-22T14:09:21;19.35;;;6.07;;
42000;SDS011;27689;48.390;10.856;2023-06-22T14:12:06;19.88;;;5.78;;
42000;SDS011;27689;48.390;10.856;2023-06-22T14:14:50;21.42;;;5.65;;
42000;SDS011;27689;48.390;10.856;2023-06-22T14:17:34;19.83;;;5.53;;
42000;SDS011;27689;48.390;10.856;2023-06-22T14:20:18;17.13;;;5.55;;
42000;SDS011;27689;48.390;10.856;2023-06-22T14:23:02;14.40;;;5.32;;
42000;SDS011;27689;48.390;10.856;2023-06-22T14:25:46;15.27;;;4.63;;
42000;SDS011;27689;48.390;10.856;2023-06-22T14:28:30;19.88;;;4.63;;
42000;SDS011;27689;48.390;10.856;2023-06-22T14:31:14;14.57;;;5.95;;
42000;SDS011;27689;48.390;10.856;2023-06-22T14:33:58;18.23;;;5.85;;
42000;SDS011;27689;48.390;10.856;2023-06-22T14:36:42;16.23;;;5.93;;
42000;SDS011;27689;48.390;10.856;2023-06-22T14:39:29;15.20;;;5.90;;
42000;SDS011;27689;48.390;10.856;2023-06-22T14:42:13;19.85;;;6.88;;
42000;SDS011;27689;48.390;10.856;2023-06-22T14:44:56;23.48;;;6.80;;
42000;SDS011;27689;48.390;10.856;2023-06-22T14:47:40;14.38;;;6.60;;
42000;SDS011;27689;48.390;10.856;2023-06-22T14:50:24;18.83;;;7.03;;
42000;SDS011;27689;48.390;10.856;2023-06-22T14:53:08;17.73;;;6.10;;
42000;SDS011;27689;48.390;10.856;2023-06-22T14:55:52;16.95;;;5.95;;
42000;SDS011;27689;48.390;10.856;2023-06-22T14:58:39;14.27;;;6.25;;
42000;SDS011;27689;48.390;10.856;2023-06-22T15:01:24;14.75;;;5.82;;
42000;SDS011;27689;48.390;10.856;2023-06-22T15:04:08;11.15;;;5.80;;
42000;SDS011;27689;48.390;10.856;2023-06-22T15:06:52;14.52;;;6.50;;
42000;SDS011;27689;48.390;10.856;2023-06-22T15:09:35;19.70;;;5.47;;
42000;SDS011;27689;48.390;10.856;2023-06-22T15:12:22;15.10;;;5.93;;
42000;SDS011;27689;48.390;10.856;2023-06-22T15:15:06;15.75;;;6.18;;
42000;SDS011;27689;48.390;10.856;2023-06-22T15:17:51;14.95;;;5.68;;
42000;SDS011;27689;48.390;10.856;2023-06-22T15:20:35;17.92;;;6.22;;
42000;SDS011;27689;48.390;10.856;2023-06-22T15:23:19;14.88;;;6.30;;
42000;SDS011;27689;48.390;10.856;2023-06-22T15:26:04;13.40;;;6.80;;
42000;SDS011;27689;48.390;10.856;2023-06-22T15:28:51;13.73;;;6.90;;
42000;SDS011;27689;48.390;10.856;2023-06-22T15:31:35;18.13;;;6.78;;
42000;SDS011;27689;48.390;10.856;2023-06-22T15:34:19;12.70;;;6.22;;
42000;SDS011;27689;48.390;10.856;2023-06-22T15:37:03;10.02;;;5.43;;
42000;SDS011;27689;48.390;10.856;2023-06-22T15:39:47;14.70;;;6.90;;
42000;SDS011;27689;48.390;10.856;2023-06-22T15:42:31;12.52;;;5.93;;
42000;SDS011;27689;48.390;10.856;2023-06-22T15:45:16;16.17;;;6.60;;
42000;SDS011;27689;48.390;10.856;2023-06-22T15:48:00;13.57;;;6.15;;
42000;SDS011;27689;48.390;10.856;2023-06-22T15:50:43;12.88;;;6.53;;
42000;SDS011;27689;48.390;10.856;2023-06-22T15:53:28;18.95;;;7.03;;
42000;SDS011;27689;48.390;10.856;2023-06-22T15:56:11;18.52;;;7.40;;
42000;SDS011;27689;48.390;10.856;2023-06-22T15:58:55;16.48;;;7.00;;
42000;SDS011;27689;48.390;10.856;2023-06-22T16:04:24;15.45;;;6.30;;
42000;SDS011;27689;48.390;10.856;2023-06-22T16:07:08;17.52;;;7.50;;
42000;SDS011;27689;48.390;10.856;2023-06-22T16:09:52;16.48;;;8.20;;
42000;SDS011;27689;48.390;10.856;2023-06-22T16:12:36;12.52;;;6.32;;
42000;SDS011;27689;48.390;10.856;2023-06-22T16:15:20;13.88;;;8.07;;
42000;SDS011;27689;48.390;10.856;2023-06-22T16:18:04;19.42;;;7.45;;
42000;SDS011;27689;48.390;10.856;2023-06-22T16:20:48;17.60;;;7.85;;
42000;SDS011;27689;48.390;10.856;2023-06-22T16:23:33;15.85;;;7.22;;
42000;SDS011;27689;48.390;10.856;2023-06-22T16:26:17;13.68;;;7.28;;
42000;SDS011;27689;48.390;10.856;2023-06-22T16:29:01;13.70;;;6.43;;
42000;SDS011;27689;48.390;10.856;2023-06-22T16:31:45;16.13;;;7.50;;
42000;SDS011;27689;48.390;10.856;2023-06-22T16:34:29;14.30;;;7.53;;
42000;SDS011;27689;48.390;10.856;2023-06-22T16:37:13;17.27;;;8.13;;
42000;SDS011;27689;48.390;10.856;2023-06-22T16:39:57;14.55;;;7.60;;
42000;SDS011;27689;48.390;10.856;2023-06-22T16:42:43;17.02;;;7.88;;
42000;SDS011;27689;48.390;10.856;2023-06-22T16:45:29;16.90;;;7.63;;
42000;SDS011;27689;48.390;10.856;2023-06-22T16:48:13;13.20;;;7.78;;
42000;SDS011;27689;48.390;10.856;2023-06-22T16:50:57;15.65;;;7.75;;
42000;SDS011;27689;48.390;10.856;2023-06-22T16:53:41;20.90;;;7.90;;
42000;SDS011;27689;48.390;10.856;2023-06-22T16:56:26;14.18;;;6.80;;